Time;durP1;ratioP1;P1;durP2;ratioP2;P2;SDS_P1;SDS_P2;PMS_P1;PMS_P2;Temp;Humidity;BMP_temperature;BMP_pressure;BME280_temperature;BME280_humidity;BME280_pressure;Samples;Min_cycle;Max_cycle;Signal;HPM_P1;HPM_P2
2022/05/18 00:02:15;;;;;;;16.17;11.33;;;14.90;97.30;;;;;;4997336;28;20448;-81
2022/05/18 00:04:41;;;;;;;13.17;10.47;;;14.90;97.30;;;;;;4998293;28;20193;-81
2022/05/18 00:07:06;;;;;;;14.00;10.20;;;14.90;97.30;;;;;;4998919;28;20566;-81
2022/05/18 00:09:32;;;;;;;14.07;11.63;;;14.90;97.30;;;;;;4996612;28;20643;-81
2022/05/18 00:11:58;;;;;;;13.20;10.37;;;14.90;97.30;;;;;;4996195;28;20178;-81
2022/05/18 00:14:23;;;;;;;17.10;11.40;;;14.80;97.30;;;;;;4996472;28;20182;-81
2022/05/18 00:16:49;;;;;;;14.40;10.67;;;14.80;97.30;;;;;;4996118;28;20201;-81
2022/05/18 00:19:14;;;;;;;16.10;10.53;;;14.80;97.30;;;;;;4995849;28;20186;-81
2022/05/18 00:21:41;;;;;;;14.50;9.53;;;14.80;97.30;;;;;;4995735;28;20564;-81
2022/05/18 00:24:07;;;;;;;15.63;10.07;;;14.80;97.30;;;;;;4994814;28;20561;-80
2022/05/18 00:26:33;;;;;;;10.93;9.83;;;14.80;97.30;;;;;;4994889;28;20436;-81
2022/05/18 00:28:58;;;;;;;13.50;10.07;;;14.80;97.30;;;;;;4996315;28;20417;-81
2022/05/18 00:31:24;;;;;;;15.37;10.80;;;14.70;97.30;;;;;;4995877;28;20222;-81
2022/05/18 00:33:50;;;;;;;13.60;9.80;;;14.70;97.30;;;;;;4999126;28;20181;-80
2022/05/18 00:36:16;;;;;;;11.40;9.73;;;14.60;97.30;;;;;;4998612;28;20198;-81
2022/05/18 00:38:41;;;;;;;11.13;9.47;;;14.50;97.30;;;;;;4998832;28;20178;-80
2022/05/18 00:41:07;;;;;;;15.70;10.03;;;14.50;97.30;;;;;;4994992;28;20448;-80
2022/05/18 00:43:33;;;;;;;12.37;9.60;;;14.40;97.30;;;;;;4994121;28;20564;-80
2022/05/18 00:46:01;;;;;;;10.83;9.13;;;14.40;97.30;;;;;;4995214;28;20217;-80
2022/05/18 00:48:27;;;;;;;14.57;9.90;;;14.40;97.30;;;;;;4995043;28;20177;-80
2022/05/18 00:50:55;;;;;;;15.30;9.87;;;14.30;97.30;;;;;;4993469;28;20460;-80
2022/05/18 00:53:30;;;;;;;12.67;10.03;;;14.30;97.30;;;;;;4995344;28;20336;-80
2022/05/18 00:56:00;;;;;;;14.07;10.27;;;14.30;97.30;;;;;;4993778;28;20502;-80
2022/05/18 00:58:39;;;;;;;12.17;10.00;;;14.30;97.30;;;;;;4992905;28;20797;-81
2022/05/18 01:01:07;;;;;;;12.67;9.63;;;14.30;97.30;;;;;;4993947;28;20421;-80
2022/05/18 01:03:39;;;;;;;14.67;9.53;;;14.20;97.30;;;;;;4995162;28;20436;-80
2022/05/18 01:06:20;;;;;;;12.70;9.60;;;14.20;97.30;;;;;;4994314;28;20534;-80
2022/05/18 01:08:51;;;;;;;12.30;9.00;;;14.20;97.30;;;;;;4995230;28;20508;-81
2022/05/18 01:11:18;;;;;;;16.13;8.80;;;14.20;97.30;;;;;;4995678;28;20461;-80
2022/05/18 01:13:44;;;;;;;15.33;9.10;;;14.10;97.30;;;;;;4995005;28;20405;-81
2022/05/18 01:16:10;;;;;;;14.70;10.50;;;14.10;97.30;;;;;;4995090;28;20552;-81
2022/05/18 01:18:36;;;;;;;10.47;9.27;;;14.00;97.30;;;;;;4995182;28;20449;-80
2022/05/18 01:21:02;;;;;;;10.20;7.93;;;14.00;97.30;;;;;;4995009;28;20174;-81
2022/05/18 01:23:53;;;;;;;10.03;8.43;;;14.00;97.30;;;;;;4994689;28;20433;-81
2022/05/18 01:26:42;;;;;;;10.60;8.17;;;13.90;97.30;;;;;;4993941;28;20237;-81
2022/05/18 01:29:08;;;;;;;11.03;8.50;;;13.90;97.30;;;;;;4994423;28;20804;-82
2022/05/18 01:31:44;;;;;;;11.27;8.80;;;13.90;97.30;;;;;;4993942;28;20477;-81
2022/05/18 01:34:10;;;;;;;13.40;9.03;;;13.90;97.30;;;;;;4994196;28;20420;-82
2022/05/18 01:36:36;;;;;;;15.50;9.97;;;13.80;97.30;;;;;;4994040;28;20441;-82
2022/05/18 01:39:02;;;;;;;10.20;9.13;;;13.80;97.30;;;;;;4994506;28;20965;-82
2022/05/18 01:41:30;;;;;;;14.07;10.03;;;13.70;97.30;;;;;;4994664;28;20507;-82
2022/05/18 01:43:59;;;;;;;14.80;10.97;;;13.70;97.30;;;;;;4994455;28;20484;-82
2022/05/18 01:46:29;;;;;;;17.37;10.80;;;13.70;97.30;;;;;;4995511;28;20441;-82
2022/05/18 01:48:55;;;;;;;14.93;10.80;;;13.70;97.30;;;;;;4996202;28;20751;-82
2022/05/18 01:51:34;;;;;;;14.93;10.40;;;13.60;97.30;;;;;;4996938;28;20460;-81
2022/05/18 01:54:00;;;;;;;11.70;8.83;;;13.60;97.30;;;;;;4995633;28;20486;-82
2022/05/18 01:56:26;;;;;;;11.50;9.00;;;13.60;97.30;;;;;;4996046;28;20441;-82
2022/05/18 01:58:52;;;;;;;12.77;8.57;;;13.60;97.30;;;;;;4996089;28;20417;-82
2022/05/18 02:01:20;;;;;;;13.87;7.73;;;13.50;97.30;;;;;;4996115;28;20434;-82
2022/05/18 02:03:46;;;;;;;9.97;8.00;;;13.50;97.30;;;;;;4996468;28;20448;-82
2022/05/18 02:06:13;;;;;;;11.07;8.53;;;13.50;97.30;;;;;;4995347;28;20452;-82
2022/05/18 02:08:40;;;;;;;12.33;8.23;;;13.50;97.30;;;;;;4996009;28;20425;-82
2022/05/18 02:11:10;;;;;;;11.73;8.90;;;13.40;97.30;;;;;;4997901;28;20461;-82
2022/05/18 02:13:35;;;;;;;10.10;8.43;;;13.30;97.30;;;;;;5000018;28;20485;-81
2022/05/18 02:16:02;;;;;;;10.80;8.67;;;13.30;97.30;;;;;;4999428;28;21130;-83
2022/05/18 02:18:28;;;;;;;10.70;8.37;;;13.30;97.30;;;;;;4998432;28;20209;-82
2022/05/18 02:20:54;;;;;;;11.13;8.90;;;13.20;97.30;;;;;;4999301;28;20429;-82
2022/05/18 02:23:19;;;;;;;9.80;7.87;;;13.20;97.30;;;;;;4998775;28;20652;-82
2022/05/18 02:25:45;;;;;;;11.20;8.90;;;13.20;97.30;;;;;;4998611;28;20237;-82
2022/05/18 02:28:10;;;;;;;12.90;9.40;;;13.10;97.30;;;;;;4998855;28;20681;-81
2022/05/18 02:30:37;;;;;;;11.20;8.67;;;13.10;97.30;;;;;;4999252;28;20216;-82
2022/05/18 02:33:03;;;;;;;10.10;8.50;;;13.10;97.30;;;;;;4999672;28;20197;-82
2022/05/18 02:35:29;;;;;;;14.67;9.00;;;13.10;97.30;;;;;;4999144;28;20437;-84
2022/05/18 02:37:55;;;;;;;10.17;9.07;;;13.10;97.30;;;;;;4998692;28;20600;-82
2022/05/18 02:40:21;;;;;;;11.40;9.10;;;13.10;97.30;;;;;;4998774;28;20181;-81
2022/05/18 02:42:46;;;;;;;11.43;9.10;;;13.10;97.30;;;;;;5000261;28;20484;-81
2022/05/18 02:45:12;;;;;;;14.33;9.10;;;13.00;97.30;;;;;;4998604;28;20228;-82
2022/05/18 02:47:38;;;;;;;11.07;8.30;;;13.00;97.30;;;;;;4999070;28;20201;-82
2022/05/18 02:50:04;;;;;;;14.93;9.03;;;13.00;97.30;;;;;;5000162;28;20201;-83
2022/05/18 02:52:31;;;;;;;12.83;10.13;;;13.00;97.30;;;;;;4997961;28;20580;-81
2022/05/18 02:57:41;;;;;;;15.50;10.77;;;12.90;97.30;;;;;;4999555;28;20478;-81
2022/05/18 03:00:07;;;;;;;12.40;9.37;;;12.90;97.30;;;;;;4997221;28;20417;-82
2022/05/18 03:02:34;;;;;;;13.40;10.00;;;12.90;97.30;;;;;;4997411;28;20181;-81
2022/05/18 03:04:59;;;;;;;13.63;10.17;;;12.90;97.30;;;;;;4997372;28;20413;-81
2022/05/18 03:07:25;;;;;;;14.97;10.90;;;12.90;97.30;;;;;;4997468;28;20850;-81
2022/05/18 03:09:50;;;;;;;15.57;10.73;;;12.90;97.30;;;;;;4997331;28;20683;-81
2022/05/18 03:12:16;;;;;;;13.27;10.67;;;12.90;97.30;;;;;;4999085;28;20597;-82
2022/05/18 03:14:41;;;;;;;16.80;11.47;;;12.80;97.30;;;;;;5000297;28;20189;-83
2022/05/18 03:17:07;;;;;;;14.07;10.43;;;12.80;97.30;;;;;;4999573;28;20205;-84
2022/05/18 03:19:33;;;;;;;14.97;10.30;;;12.80;97.30;;;;;;5000175;28;20174;-82
2022/05/18 03:24:43;;;;;;;14.30;10.70;;;12.80;97.30;;;;;;5000771;28;20515;-82
2022/05/18 03:27:10;;;;;;;13.00;11.00;;;12.80;97.30;;;;;;4999997;28;20950;-82
2022/05/18 03:29:36;;;;;;;16.37;11.27;;;12.80;97.30;;;;;;4994081;28;20235;-84
2022/05/18 03:32:02;;;;;;;14.57;11.10;;;12.80;97.30;;;;;;4993551;28;20414;-84
2022/05/18 03:34:28;;;;;;;14.10;11.40;;;12.80;97.30;;;;;;4992250;28;20174;-84
2022/05/18 03:36:53;;;;;;;16.40;12.40;;;12.80;97.30;;;;;;4992442;28;20444;-84
2022/05/18 03:39:19;;;;;;;16.30;11.37;;;12.80;97.30;;;;;;4993105;28;20182;-85
2022/05/18 03:41:44;;;;;;;14.40;11.00;;;12.80;97.30;;;;;;4992852;28;20198;-84
2022/05/18 03:44:10;;;;;;;18.73;12.63;;;12.80;97.30;;;;;;4992510;28;20192;-84
2022/05/18 03:46:36;;;;;;;19.03;12.63;;;12.80;97.30;;;;;;4992464;28;20760;-84
2022/05/18 03:49:03;;;;;;;17.40;12.20;;;12.80;97.30;;;;;;4992254;28;20192;-85
2022/05/18 03:51:29;;;;;;;17.17;11.00;;;12.90;97.30;;;;;;4991835;28;20882;-84
2022/05/18 03:53:55;;;;;;;15.37;10.73;;;12.90;97.30;;;;;;4993268;28;20540;-84
2022/05/18 03:56:21;;;;;;;15.83;10.97;;;12.90;97.30;;;;;;4991732;28;20569;-84
2022/05/18 03:58:46;;;;;;;14.60;11.47;;;12.90;97.30;;;;;;4992620;28;20186;-84
2022/05/18 04:01:13;;;;;;;17.20;11.50;;;12.90;97.30;;;;;;4992742;28;20235;-84
2022/05/18 04:03:46;;;;;;;17.43;12.10;;;12.90;97.30;;;;;;4994573;28;20277;-84
2022/05/18 04:06:13;;;;;;;14.00;11.10;;;12.90;97.30;;;;;;4996819;28;20441;-83
2022/05/18 04:08:39;;;;;;;15.53;11.10;;;12.90;97.30;;;;;;4996434;28;20444;-83
2022/05/18 04:11:06;;;;;;;13.93;10.50;;;13.00;97.30;;;;;;4996703;28;20910;-84
2022/05/18 04:13:32;;;;;;;16.30;11.17;;;13.00;97.30;;;;;;4995928;28;20929;-83
2022/05/18 04:15:58;;;;;;;15.40;11.73;;;13.00;97.30;;;;;;4997227;28;20440;-83
2022/05/18 04:18:24;;;;;;;20.23;12.67;;;13.10;97.30;;;;;;5013405;28;20417;-83
2022/05/18 04:20:52;;;;;;;19.47;14.73;;;13.10;97.30;;;;;;4995643;28;20464;-84
2022/05/18 04:23:18;;;;;;;18.00;12.83;;;13.10;97.30;;;;;;4995149;28;20425;-85
2022/05/18 04:25:44;;;;;;;21.53;12.90;;;13.10;97.30;;;;;;4996205;28;20484;-83
2022/05/18 04:28:14;;;;;;;20.87;15.00;;;13.20;97.30;;;;;;4997185;28;20276;-84
2022/05/18 04:30:41;;;;;;;23.50;15.37;;;13.20;97.30;;;;;;4996111;28;20976;-83
2022/05/18 04:33:07;;;;;;;25.43;16.40;;;13.30;97.30;;;;;;4995632;28;20409;-83
2022/05/18 04:35:33;;;;;;;24.40;17.20;;;13.30;97.30;;;;;;4992564;28;20448;-83
2022/05/18 04:37:58;;;;;;;34.57;18.70;;;13.40;97.30;;;;;;4994116;28;20189;-83
2022/05/18 04:40:24;;;;;;;30.80;20.50;;;13.50;97.30;;;;;;4996201;28;20437;-84
2022/05/18 04:42:51;;;;;;;31.13;19.83;;;13.50;97.30;;;;;;4996055;28;20178;-85
2022/05/18 04:45:20;;;;;;;31.97;19.47;;;13.60;97.30;;;;;;4996837;28;20252;-84
2022/05/18 04:47:46;;;;;;;29.50;18.97;;;13.60;97.30;;;;;;4995333;28;20977;-84
2022/05/18 04:50:12;;;;;;;35.20;20.20;;;13.70;97.30;;;;;;4995727;28;20469;-83
2022/05/18 04:52:38;;;;;;;33.83;20.47;;;13.80;97.30;;;;;;4996510;28;20432;-84
2022/05/18 04:55:04;;;;;;;27.90;18.90;;;13.80;97.30;;;;;;4995796;28;20417;-83
2022/05/18 04:57:30;;;;;;;26.97;18.63;;;13.90;97.30;;;;;;4996787;28;20572;-83
2022/05/18 04:59:56;;;;;;;30.67;20.03;;;14.00;97.30;;;;;;4997638;28;20425;-83
2022/05/18 05:02:22;;;;;;;28.23;19.10;;;14.00;97.30;;;;;;4997529;28;20189;-83
2022/05/18 05:04:48;;;;;;;35.33;20.57;;;14.10;97.30;;;;;;4998418;28;20174;-83
2022/05/18 05:07:13;;;;;;;33.83;20.07;;;14.10;97.30;;;;;;4998386;28;20464;-83
2022/05/18 05:09:39;;;;;;;35.20;20.70;;;14.20;97.30;;;;;;4998850;28;20185;-83
2022/05/18 05:12:06;;;;;;;31.53;21.23;;;14.20;97.30;;;;;;4998879;28;20185;-82
2022/05/18 05:14:34;;;;;;;36.83;21.30;;;14.30;97.30;;;;;;4997347;28;20539;-84
2022/05/18 05:17:00;;;;;;;34.30;22.47;;;14.40;97.30;;;;;;4996040;28;20452;-83
2022/05/18 05:19:26;;;;;;;32.53;21.00;;;14.40;97.30;;;;;;4997125;28;20424;-84
2022/05/18 05:21:52;;;;;;;35.10;21.60;;;14.50;97.30;;;;;;4997483;28;20483;-83
2022/05/18 05:24:17;;;;;;;31.73;21.17;;;14.50;97.30;;;;;;4997929;28;20409;-83
2022/05/18 05:26:44;;;;;;;35.27;21.53;;;14.60;97.30;;;;;;4995899;28;20537;-83
2022/05/18 05:29:11;;;;;;;35.93;22.80;;;14.60;97.30;;;;;;4996117;28;20186;-84
2022/05/18 05:31:37;;;;;;;35.53;20.93;;;14.70;97.30;;;;;;4994128;28;20495;-81
2022/05/18 05:34:04;;;;;;;35.30;22.53;;;14.80;97.30;;;;;;4994712;28;20419;-81
2022/05/18 05:36:31;;;;;;;35.57;21.60;;;14.80;97.30;;;;;;4993573;28;21038;-80
2022/05/18 05:38:57;;;;;;;39.03;21.83;;;14.90;97.30;;;;;;4993395;28;20488;-80
2022/05/18 05:41:23;;;;;;;35.87;22.77;;;15.00;97.30;;;;;;4992882;28;20808;-80
2022/05/18 05:43:50;;;;;;;36.43;21.43;;;15.00;97.30;;;;;;4993853;28;20468;-81
2022/05/18 05:46:17;;;;;;;40.27;23.60;;;15.10;97.30;;;;;;4995655;28;20515;-80
2022/05/18 05:48:45;;;;;;;36.57;22.37;;;15.20;97.30;;;;;;4997542;28;20479;-80
2022/05/18 05:51:15;;;;;;;37.90;23.67;;;15.20;97.30;;;;;;4997435;28;21036;-81
2022/05/18 05:53:43;;;;;;;36.60;22.73;;;15.30;97.30;;;;;;4996236;28;20512;-80
2022/05/18 05:56:09;;;;;;;37.67;23.20;;;15.30;97.30;;;;;;4999209;28;20806;-81
2022/05/18 05:58:36;;;;;;;32.90;23.13;;;15.40;97.30;;;;;;4996544;28;20460;-80
2022/05/18 06:01:05;;;;;;;37.20;23.00;;;15.50;97.30;;;;;;4997949;28;20842;-81
2022/05/18 06:03:33;;;;;;;31.13;21.53;;;15.50;97.30;;;;;;4997770;28;20505;-81
2022/05/18 06:06:00;;;;;;;35.10;22.57;;;15.50;97.30;;;;;;4998719;28;20449;-81
2022/05/18 06:08:26;;;;;;;40.50;23.53;;;15.60;97.30;;;;;;4998559;28;20449;-80
2022/05/18 06:10:52;;;;;;;33.00;21.07;;;15.60;97.30;;;;;;4997735;28;20472;-81
2022/05/18 06:13:17;;;;;;;30.70;20.10;;;15.70;97.30;;;;;;4997745;28;20488;-81
2022/05/18 06:15:43;;;;;;;30.00;20.23;;;15.70;97.30;;;;;;4998333;28;20468;-80
2022/05/18 06:18:10;;;;;;;30.70;20.07;;;15.80;97.30;;;;;;4998473;28;20188;-81
2022/05/18 06:20:35;;;;;;;29.47;19.23;;;15.80;97.30;;;;;;5000748;28;20178;-81
2022/05/18 06:23:06;;;;;;;34.63;20.20;;;15.90;97.30;;;;;;4999688;28;20431;-82
2022/05/18 06:25:32;;;;;;;30.53;19.13;;;16.00;97.30;;;;;;5000069;28;20237;-81
2022/05/18 06:27:57;;;;;;;34.20;20.90;;;16.00;97.30;;;;;;5000064;28;20433;-80
2022/05/18 06:30:23;;;;;;;32.87;19.97;;;16.10;97.30;;;;;;4999995;28;20467;-80
2022/05/18 06:32:49;;;;;;;30.90;18.83;;;16.10;97.30;;;;;;4998486;28;20181;-82
2022/05/18 06:35:15;;;;;;;30.13;19.47;;;16.20;97.30;;;;;;4996366;28;20277;-80
2022/05/18 06:37:41;;;;;;;33.93;21.17;;;16.20;97.30;;;;;;4997578;28;20174;-82
2022/05/18 06:40:09;;;;;;;29.83;19.20;;;16.30;97.30;;;;;;4997362;28;20277;-82
2022/05/18 06:42:35;;;;;;;35.30;19.37;;;16.30;97.30;;;;;;4997545;28;20429;-83
2022/05/18 06:45:03;;;;;;;27.37;19.20;;;16.40;97.30;;;;;;4997884;28;20486;-82
2022/05/18 06:47:30;;;;;;;29.80;20.63;;;16.50;97.30;;;;;;4998459;28;20425;-83
2022/05/18 06:49:56;;;;;;;34.83;21.43;;;16.60;97.30;;;;;;4998657;28;20463;-82
2022/05/18 06:52:22;;;;;;;31.87;21.27;;;16.60;97.30;;;;;;4998537;28;20425;-83
2022/05/18 06:54:48;;;;;;;26.83;18.73;;;16.70;97.30;;;;;;4999434;28;20435;-82
2022/05/18 06:57:14;;;;;;;29.80;18.70;;;16.80;97.30;;;;;;4997957;28;20421;-82
2022/05/18 06:59:39;;;;;;;29.40;20.43;;;16.90;97.30;;;;;;5000905;28;20409;-82
2022/05/18 07:02:05;;;;;;;35.03;21.47;;;17.00;97.30;;;;;;4999432;28;20558;-81
2022/05/18 07:04:31;;;;;;;31.23;19.50;;;17.00;97.30;;;;;;4998516;28;20324;-83
2022/05/18 07:06:57;;;;;;;32.00;18.93;;;17.10;97.30;;;;;;4998237;28;20201;-82
2022/05/18 07:09:24;;;;;;;27.50;17.77;;;17.20;97.30;;;;;;4997054;28;20413;-82
2022/05/18 07:11:50;;;;;;;30.47;17.60;;;17.30;97.30;;;;;;4997332;28;20468;-82
2022/05/18 07:14:19;;;;;;;29.30;17.50;;;17.40;97.30;;;;;;4997468;28;20829;-82
2022/05/18 07:16:45;;;;;;;27.60;17.20;;;17.40;97.30;;;;;;4997294;28;20611;-82
2022/05/18 07:19:10;;;;;;;25.03;16.97;;;17.50;97.30;;;;;;4996984;28;20416;-82
2022/05/18 07:21:36;;;;;;;25.20;17.00;;;17.60;97.30;;;;;;4997704;28;20417;-82
2022/05/18 07:24:02;;;;;;;26.63;17.87;;;17.70;97.30;;;;;;4996213;28;20268;-82
2022/05/18 07:26:29;;;;;;;22.17;14.67;;;17.80;97.30;;;;;;4977583;28;20660;-82
2022/05/18 07:28:55;;;;;;;33.00;18.90;;;17.90;97.30;;;;;;4978758;28;20409;-83
2022/05/18 07:31:20;;;;;;;19.53;14.23;;;18.00;97.30;;;;;;4976626;28;20518;-82
2022/05/18 07:33:47;;;;;;;25.87;15.40;;;18.10;97.30;;;;;;4976629;28;20430;-82
2022/05/18 07:36:13;;;;;;;28.20;16.07;;;18.30;97.30;;;;;;4976869;28;20613;-83
2022/05/18 07:38:40;;;;;;;22.93;13.93;;;18.40;97.30;;;;;;4976979;28;20472;-81
2022/05/18 07:41:08;;;;;;;19.60;13.60;;;18.60;97.30;;;;;;4976238;28;20454;-82
2022/05/18 07:43:34;;;;;;;20.47;14.10;;;18.70;97.30;;;;;;4974814;28;20425;-82
2022/05/18 07:45:59;;;;;;;25.00;14.80;;;18.80;97.30;;;;;;4975853;28;20454;-82
2022/05/18 07:48:26;;;;;;;19.73;12.90;;;18.80;97.30;;;;;;4975506;28;20450;-83
2022/05/18 07:50:52;;;;;;;18.70;12.67;;;18.90;97.30;;;;;;4976742;28;20293;-82
2022/05/18 07:53:18;;;;;;;18.43;13.00;;;19.00;97.30;;;;;;4976819;28;20442;-82
2022/05/18 07:55:44;;;;;;;25.13;13.53;;;19.10;97.30;;;;;;4974720;28;20209;-82
2022/05/18 07:58:12;;;;;;;18.10;12.40;;;19.30;97.30;;;;;;4974629;28;20681;-83
2022/05/18 08:00:39;;;;;;;19.57;12.90;;;19.40;97.30;;;;;;4976362;28;20425;-83
2022/05/18 08:03:09;;;;;;;23.23;13.73;;;19.50;97.30;;;;;;4973986;28;20481;-82
2022/05/18 08:05:35;;;;;;;25.33;13.67;;;19.60;97.30;;;;;;4975777;28;20437;-82
2022/05/18 08:08:10;;;;;;;19.90;12.67;;;19.70;97.30;;;;;;4974668;28;20717;-82
2022/05/18 08:16:05;;;;;;;17.30;13.10;;;20.00;97.30;;;;;;4975950;28;20489;-82
2022/05/18 08:18:31;;;;;;;19.53;13.97;;;20.10;97.30;;;;;;4974647;28;20429;-82
2022/05/18 08:20:56;;;;;;;20.80;14.00;;;20.10;97.30;;;;;;4975565;28;20414;-82
2022/05/18 08:23:22;;;;;;;21.73;13.93;;;20.30;97.30;;;;;;4973713;28;20183;-82
2022/05/18 08:25:48;;;;;;;19.93;14.17;;;20.40;97.30;;;;;;4987700;28;20238;-82
2022/05/18 08:28:15;;;;;;;19.00;13.47;;;20.50;97.30;;;;;;4993418;28;20551;-82
2022/05/18 08:30:42;;;;;;;22.70;12.33;;;20.60;97.30;;;;;;4993159;28;20288;-82
2022/05/18 08:33:08;;;;;;;22.00;13.73;;;20.60;97.30;;;;;;4993005;28;20493;-83
2022/05/18 08:35:35;;;;;;;16.70;12.20;;;20.70;97.30;;;;;;4992868;28;20468;-82
2022/05/18 08:38:00;;;;;;;13.60;10.10;;;20.70;97.30;;;;;;4992898;28;20429;-82
2022/05/18 08:40:29;;;;;;;12.53;10.03;;;20.80;97.30;;;;;;4994665;28;20989;-83
2022/05/18 08:42:56;;;;;;;14.00;10.60;;;20.90;97.30;;;;;;4993341;28;20471;-83
2022/05/18 08:45:25;;;;;;;13.90;9.70;;;21.00;96.70;;;;;;4993397;28;20453;-82
2022/05/18 08:48:24;;;;;;;12.60;9.77;;;21.10;97.30;;;;;;4993218;28;20421;-83
2022/05/18 08:50:52;;;;;;;13.63;8.57;;;21.20;96.50;;;;;;4989927;28;20900;-82
2022/05/18 08:53:49;;;;;;;10.23;8.60;;;21.20;96.70;;;;;;4992753;28;20788;-82
2022/05/18 08:56:24;;;;;;;11.80;9.00;;;21.30;97.30;;;;;;4992565;28;20440;-83
2022/05/18 08:58:52;;;;;;;10.57;8.87;;;21.40;96.90;;;;;;4992986;28;20416;-82
2022/05/18 09:01:36;;;;;;;10.63;7.50;;;21.50;95.30;;;;;;4992717;28;20433;-83
2022/05/18 09:04:12;;;;;;;16.77;8.30;;;21.60;95.10;;;;;;4992771;28;20862;-83
2022/05/18 09:06:47;;;;;;;10.90;8.23;;;21.70;94.10;;;;;;4992442;28;20444;-82
2022/05/18 09:12:27;;;;;;;13.03;8.17;;;22.00;95.80;;;;;;4982447;28;20449;-82
2022/05/18 09:14:53;;;;;;;9.53;7.30;;;22.10;95.00;;;;;;4992716;28;20437;-83
2022/05/18 09:17:34;;;;;;;11.63;7.77;;;22.20;95.50;;;;;;4993117;28;20698;-83
2022/05/18 09:20:12;;;;;;;10.80;8.20;;;22.30;93.70;;;;;;4993041;28;20492;-83
2022/05/18 09:22:50;;;;;;;11.13;8.17;;;22.40;93.80;;;;;;4993206;28;20919;-83
2022/05/18 09:25:42;;;;;;;13.30;8.40;;;22.50;93.80;;;;;;4992732;28;20543;-83
2022/05/18 09:28:35;;;;;;;12.33;7.50;;;22.60;92.10;;;;;;4993992;28;20471;-83
2022/05/18 09:31:06;;;;;;;12.23;7.50;;;22.60;93.00;;;;;;4993563;28;20519;-84
2022/05/18 09:33:46;;;;;;;14.40;8.87;;;22.70;93.20;;;;;;4994405;28;20520;-82
2022/05/18 09:36:40;;;;;;;12.27;8.10;;;22.80;90.60;;;;;;4993060;28;20437;-82
2022/05/18 09:39:10;;;;;;;11.13;7.50;;;22.80;92.40;;;;;;4995668;28;20448;-83
2022/05/18 09:41:48;;;;;;;14.00;7.97;;;22.90;91.80;;;;;;4993969;28;20448;-83
2022/05/18 09:44:40;;;;;;;9.07;7.90;;;23.00;91.90;;;;;;4995365;28;20428;-83
2022/05/18 09:47:11;;;;;;;9.97;6.77;;;23.10;92.90;;;;;;4996321;28;20485;-82
2022/05/18 09:49:50;;;;;;;10.00;7.07;;;23.20;93.70;;;;;;4994915;28;20830;-82
2022/05/18 09:52:20;;;;;;;8.67;6.50;;;23.20;93.00;;;;;;4995421;28;20413;-83
2022/05/18 09:54:46;;;;;;;9.23;6.07;;;23.30;90.80;;;;;;4996308;28;20413;-83
2022/05/18 09:57:23;;;;;;;8.10;6.27;;;23.40;88.90;;;;;;4995374;28;20433;-83
2022/05/18 09:59:58;;;;;;;11.10;6.77;;;23.50;90.90;;;;;;4994518;28;20409;-83
2022/05/18 10:08:11;;;;;;;10.53;5.97;;;23.70;88.40;;;;;;4996179;28;20437;-84
2022/05/18 10:10:38;;;;;;;10.27;6.67;;;23.90;90.30;;;;;;4993968;28;20889;-84
2022/05/18 10:13:14;;;;;;;8.00;6.83;;;24.00;90.40;;;;;;4995138;28;20413;-83
2022/05/18 10:15:45;;;;;;;8.63;6.43;;;24.10;89.00;;;;;;4995123;28;20440;-83
2022/05/18 10:18:23;;;;;;;7.00;4.93;;;24.10;89.70;;;;;;4994942;28;20441;-85
2022/05/18 10:21:13;;;;;;;7.47;5.30;;;24.10;89.70;;;;;;4995125;28;20435;-83
2022/05/18 10:23:52;;;;;;;6.00;5.13;;;24.30;90.20;;;;;;4996239;28;20429;-83
2022/05/18 10:26:28;;;;;;;7.53;5.80;;;24.30;88.50;;;;;;4994602;28;20480;-85
2022/05/18 10:29:07;;;;;;;6.30;5.50;;;24.20;88.90;;;;;;4995775;28;20415;-83
2022/05/18 10:31:42;;;;;;;7.07;5.63;;;24.20;89.00;;;;;;4993441;28;20479;-84
2022/05/18 10:34:24;;;;;;;7.53;5.57;;;24.30;89.50;;;;;;4998703;28;20425;-84
2022/05/18 10:36:53;;;;;;;11.97;6.63;;;24.30;88.30;;;;;;4998792;28;20449;-85
2022/05/18 10:39:38;;;;;;;6.40;5.50;;;24.30;89.90;;;;;;4999076;28;20425;-83
2022/05/18 10:42:19;;;;;;;7.17;5.50;;;24.50;89.60;;;;;;4998438;28;20445;-83
2022/05/18 10:44:45;;;;;;;7.93;5.90;;;24.50;88.10;;;;;;4998401;28;20926;-84
2022/05/18 10:47:35;;;;;;;11.73;6.40;;;24.60;88.70;;;;;;4998700;28;20417;-83
2022/05/18 10:50:21;;;;;;;6.60;5.40;;;24.70;89.30;;;;;;4997440;28;20814;-83
2022/05/18 10:52:47;;;;;;;7.97;5.17;;;24.90;88.80;;;;;;4999248;28;20420;-83
2022/05/18 10:55:19;;;;;;;5.67;4.87;;;25.00;88.50;;;;;;4996405;28;20927;-83
2022/05/18 10:57:57;;;;;;;7.87;5.20;;;25.00;87.50;;;;;;4997288;28;20989;-85
2022/05/18 11:00:46;;;;;;;8.23;4.67;;;25.00;87.00;;;;;;4998044;28;20416;-84
2022/05/18 11:03:20;;;;;;;8.73;5.13;;;25.10;88.70;;;;;;4996409;28;20451;-84
2022/05/18 11:05:54;;;;;;;5.90;5.00;;;25.20;86.80;;;;;;4997070;28;20804;-85
2022/05/18 11:08:23;;;;;;;6.33;4.83;;;25.30;85.20;;;;;;4996614;28;20555;-84
2022/05/18 11:11:05;;;;;;;5.73;4.90;;;25.40;86.10;;;;;;4996323;28;21001;-83
2022/05/18 11:13:36;;;;;;;11.23;5.27;;;25.50;86.70;;;;;;4999091;28;20523;-85
2022/05/18 11:16:17;;;;;;;5.20;4.20;;;25.50;85.10;;;;;;4996087;28;20436;-84
2022/05/18 11:18:56;;;;;;;7.20;4.83;;;25.50;85.80;;;;;;4995077;28;20836;-84
2022/05/18 11:21:56;;;;;;;5.60;4.50;;;25.60;84.10;;;;;;4994670;28;20453;-83
2022/05/18 11:24:31;;;;;;;6.13;4.50;;;25.80;82.90;;;;;;4996339;28;20432;-84
2022/05/18 11:27:16;;;;;;;6.90;4.70;;;25.80;84.70;;;;;;4998422;28;20436;-83
2022/05/18 11:30:07;;;;;;;6.13;4.47;;;25.90;85.50;;;;;;4997289;28;20437;-84
2022/05/18 11:32:51;;;;;;;8.47;4.70;;;25.80;83.10;;;;;;4998387;28;20792;-83
2022/05/18 11:35:29;;;;;;;6.17;4.40;;;25.80;83.60;;;;;;4993319;28;20435;-85
2022/05/18 11:38:18;;;;;;;5.23;4.07;;;25.80;82.30;;;;;;4994577;28;20424;-84
2022/05/18 11:41:07;;;;;;;6.53;3.60;;;25.80;83.90;;;;;;4993977;28;20504;-84
2022/05/18 11:43:57;;;;;;;6.50;3.90;;;25.90;82.00;;;;;;4995116;28;20467;-84
2022/05/18 11:46:53;;;;;;;6.43;4.20;;;26.00;81.40;;;;;;4996940;28;20511;-85
2022/05/18 11:49:23;;;;;;;5.93;3.57;;;26.10;81.10;;;;;;4994655;28;20409;-82
2022/05/18 11:52:00;;;;;;;3.80;3.30;;;26.10;80.70;;;;;;4994571;28;20576;-82
2022/05/18 11:54:38;;;;;;;7.13;3.40;;;26.10;79.10;;;;;;4995312;28;20424;-82
2022/05/18 11:57:35;;;;;;;4.20;3.87;;;26.30;81.30;;;;;;4994485;28;20571;-82
2022/05/18 12:01:08;;;;;;;4.70;4.00;;;26.40;81.60;;;;;;4974246;28;20440;-83
2022/05/18 12:03:48;;;;;;;4.73;3.40;;;26.50;80.10;;;;;;4989978;28;20425;-83
2022/05/18 12:06:43;;;;;;;4.10;3.27;;;26.60;78.00;;;;;;5011541;28;20433;-82
2022/05/18 12:09:32;;;;;;;4.17;2.90;;;26.70;78.00;;;;;;4983576;28;20944;-82
2022/05/18 12:12:19;;;;;;;3.90;3.10;;;26.80;76.60;;;;;;4993476;28;20602;-82
2022/05/18 12:15:07;;;;;;;11.63;3.20;;;26.90;77.10;;;;;;4993683;28;20424;-85
2022/05/18 12:17:51;;;;;;;5.17;3.13;;;27.10;77.50;;;;;;4993179;28;20444;-82
2022/05/18 12:20:47;;;;;;;4.17;2.97;;;27.20;78.50;;;;;;4994124;28;20952;-82
2022/05/18 12:23:16;;;;;;;4.27;3.07;;;27.40;79.30;;;;;;4988976;28;21076;-81
2022/05/18 12:25:43;;;;;;;4.43;4.17;;;27.50;79.60;;;;;;4995578;28;20481;-84
2022/05/18 12:28:11;;;;;;;4.10;3.07;;;27.60;77.90;;;;;;4995191;28;20768;-84
2022/05/18 12:30:40;;;;;;;3.60;3.03;;;27.60;74.20;;;;;;4995621;28;20495;-84
2022/05/18 12:33:08;;;;;;;3.73;2.90;;;27.50;74.40;;;;;;4995655;28;20417;-85
2022/05/18 12:36:10;;;;;;;4.50;3.63;;;27.60;74.10;;;;;;4995538;28;20429;-83
2022/05/18 12:39:08;;;;;;;5.13;3.47;;;27.80;75.90;;;;;;4983494;28;20436;-84
2022/05/18 12:41:41;;;;;;;4.90;3.10;;;27.80;75.90;;;;;;4996486;28;20475;-84
2022/05/18 12:44:10;;;;;;;4.70;3.10;;;28.00;76.30;;;;;;4996389;28;21003;-84
2022/05/18 12:47:04;;;;;;;4.40;3.50;;;28.20;78.40;;;;;;4995677;28;20436;-84
2022/05/18 12:49:34;;;;;;;5.27;3.43;;;28.30;75.60;;;;;;4973195;28;20436;-83
2022/05/18 12:52:17;;;;;;;3.27;2.70;;;28.20;75.50;;;;;;4994899;28;20464;-83
2022/05/18 12:54:53;;;;;;;3.10;2.70;;;28.20;74.40;;;;;;4994572;28;20416;-83
2022/05/18 12:57:41;;;;;;;3.70;2.67;;;28.20;73.60;;;;;;4996609;28;20801;-84
2022/05/18 13:00:25;;;;;;;3.70;2.70;;;28.30;77.80;;;;;;4994717;28;20420;-84
2022/05/18 13:03:01;;;;;;;4.80;3.70;;;28.30;73.30;;;;;;4995329;28;20416;-84
2022/05/18 13:05:28;;;;;;;4.40;2.87;;;28.40;73.30;;;;;;4995029;28;20519;-84
2022/05/18 13:08:02;;;;;;;4.10;2.70;;;28.50;72.80;;;;;;4995268;28;20946;-84
2022/05/18 13:10:33;;;;;;;7.63;2.50;;;28.50;73.20;;;;;;4996427;28;20463;-85
2022/05/18 13:13:01;;;;;;;4.30;2.93;;;28.50;71.90;;;;;;4994041;28;20418;-84